createdAt,value
2023-07-06T00:07:06.558Z,16.90
2023-07-06T00:32:30.574Z,17.30
2023-07-06T00:34:57.470Z,16.40
2023-07-06T00:37:25.250Z,18.00
2023-07-06T00:39:54.371Z,17.00
2023-07-06T00:45:00.863Z,16.90
2023-07-06T00:47:38.306Z,17.00
2023-07-06T00:50:12.516Z,17.00
2023-07-06T00:52:44.221Z,17.00
2023-07-06T00:55:14.164Z,16.90
2023-07-06T00:57:43.845Z,16.80
2023-07-06T01:00:15.377Z,16.80
2023-07-06T01:02:42.790Z,16.80
2023-07-06T01:05:12.559Z,16.50
2023-07-06T01:07:43.039Z,16.80
2023-07-06T01:10:10.782Z,16.70
2023-07-06T01:12:37.910Z,16.90
2023-07-06T01:15:08.490Z,16.60
2023-07-06T01:17:50.755Z,16.40
2023-07-06T01:20:33.352Z,16.50
2023-07-06T01:23:18.946Z,15.70
2023-07-06T01:26:10.413Z,16.40
2023-07-06T01:28:49.996Z,16.30
2023-07-06T01:31:37.815Z,16.30
2023-07-06T01:34:19.850Z,16.30
2023-07-06T01:37:04.040Z,16.20
2023-07-06T01:39:31.366Z,16.20
2023-07-06T01:42:09.901Z,16.40
2023-07-06T01:44:38.589Z,16.00
2023-07-06T01:47:05.883Z,16.00
2023-07-06T01:49:35.111Z,15.80
2023-07-06T01:52:05.326Z,15.80
2023-07-06T01:54:42.826Z,15.70
2023-07-06T01:57:19.113Z,15.90
2023-07-06T01:59:50.836Z,15.60
2023-07-06T02:02:18.205Z,15.70
2023-07-06T02:04:45.542Z,15.60
2023-07-06T02:07:14.600Z,15.70
2023-07-06T02:09:49.051Z,15.50
2023-07-06T02:12:16.270Z,15.50
2023-07-06T02:14:43.985Z,15.50
2023-07-06T02:17:11.765Z,15.60
2023-07-06T02:19:40.268Z,15.60
2023-07-06T02:22:07.204Z,15.60
2023-07-06T02:24:35.640Z,16.10
2023-07-06T02:27:03.353Z,14.40
2023-07-06T02:29:31.097Z,15.60
2023-07-06T02:31:57.872Z,15.60
2023-07-06T02:34:28.045Z,15.60
2023-07-06T02:36:58.121Z,15.40
2023-07-06T02:39:26.111Z,15.70
2023-07-06T02:41:55.303Z,15.20
2023-07-06T02:44:23.704Z,15.30
2023-07-06T02:46:51.694Z,14.80
2023-07-06T02:49:19.133Z,16.10
2023-07-06T02:51:47.667Z,15.30
2023-07-06T02:54:19.506Z,17.10
2023-07-06T02:56:46.337Z,15.00
2023-07-06T02:59:15.010Z,14.40
2023-07-06T03:01:41.807Z,15.20
2023-07-06T03:04:11.766Z,15.60
2023-07-06T03:06:39.706Z,15.90
2023-07-06T03:09:08.766Z,14.70
2023-07-06T03:11:37.521Z,16.30
2023-07-06T03:14:05.301Z,15.70
2023-07-06T03:16:41.837Z,17.10
2023-07-06T03:19:10.714Z,16.40
2023-07-06T03:21:39.844Z,15.70
2023-07-06T03:24:10.295Z,16.30
2023-07-06T03:26:38.706Z,16.70
2023-07-06T03:29:07.169Z,16.20
2023-07-06T03:31:34.930Z,16.20
2023-07-06T03:34:03.599Z,17.60
2023-07-06T03:36:32.547Z,17.70
2023-07-06T03:39:00.071Z,18.00
2023-07-06T03:44:00.086Z,18.50
2023-07-06T03:46:32.867Z,18.90
2023-07-06T03:51:28.326Z,18.70
2023-07-06T03:53:55.520Z,19.30
2023-07-06T03:56:29.085Z,18.60
2023-07-06T03:59:01.067Z,18.30
2023-07-06T04:01:29.584Z,18.50
2023-07-06T04:03:57.444Z,18.30
2023-07-06T04:06:30.473Z,18.50
2023-07-06T04:08:58.191Z,19.00
2023-07-06T04:11:25.648Z,19.70
2023-07-06T04:14:00.719Z,19.70
2023-07-06T04:16:28.600Z,18.90
2023-07-06T04:18:57.350Z,19.70
2023-07-06T04:21:24.629Z,18.20
2023-07-06T04:23:51.945Z,19.10
2023-07-06T04:26:21.393Z,19.00
2023-07-06T04:28:50.219Z,19.40
2023-07-06T04:31:18.644Z,19.90
2023-07-06T04:33:48.854Z,19.90
2023-07-06T04:36:19.158Z,19.90
2023-07-06T04:38:46.928Z,18.90
2023-07-06T04:41:16.742Z,19.00
2023-07-06T04:43:43.971Z,18.90
2023-07-06T04:46:11.113Z,19.00
2023-07-06T04:48:37.905Z,19.30
2023-07-06T04:51:05.433Z,19.00
2023-07-06T04:53:34.008Z,19.60
2023-07-06T04:56:02.359Z,19.80
2023-07-06T04:58:32.358Z,19.60
2023-07-06T05:01:06.507Z,19.70
2023-07-06T05:03:34.321Z,19.50
2023-07-06T05:06:06.350Z,19.60
2023-07-06T05:08:34.168Z,19.60
2023-07-06T05:11:04.898Z,19.50
2023-07-06T05:13:32.991Z,19.60
2023-07-06T05:15:59.962Z,20.20
2023-07-06T05:18:27.411Z,19.70
2023-07-06T05:20:58.418Z,19.90
2023-07-06T05:23:30.568Z,20.10
2023-07-06T05:26:04.341Z,20.40
2023-07-06T05:28:32.621Z,19.70
2023-07-06T05:31:03.756Z,19.80
2023-07-06T05:33:33.403Z,19.80
2023-07-06T05:36:00.895Z,19.80
2023-07-06T05:38:27.695Z,19.90
2023-07-06T05:40:54.510Z,20.20
2023-07-06T05:43:22.248Z,20.00
2023-07-06T05:45:49.079Z,20.70
2023-07-06T05:48:16.144Z,20.20
2023-07-06T05:50:43.827Z,20.40
2023-07-06T05:53:10.623Z,20.00
2023-07-06T05:55:37.737Z,20.10
2023-07-06T05:58:05.048Z,20.20
2023-07-06T06:05:36.315Z,20.00
2023-07-06T06:08:03.761Z,20.80
2023-07-06T06:10:32.792Z,20.30
2023-07-06T06:13:02.047Z,20.40
2023-07-06T06:15:28.908Z,20.90
2023-07-06T06:20:25.447Z,20.40
2023-07-06T06:25:20.946Z,21.40
2023-07-06T06:35:29.366Z,21.60
2023-07-06T06:37:59.414Z,21.70
2023-07-06T06:40:28.952Z,21.80
2023-07-06T06:42:56.278Z,21.80
2023-07-06T06:45:23.154Z,22.10
2023-07-06T06:47:50.543Z,22.50
2023-07-06T06:50:21.795Z,22.80
2023-07-06T06:52:50.212Z,23.20
2023-07-06T06:55:18.057Z,23.60
2023-07-06T06:57:45.233Z,24.00
2023-07-06T07:00:15.830Z,24.60
2023-07-06T07:02:42.763Z,25.30
2023-07-06T07:05:11.074Z,26.80
2023-07-06T07:07:41.469Z,27.60
2023-07-06T07:10:10.996Z,28.50
2023-07-06T07:12:58.134Z,30.00
2023-07-06T07:15:40.359Z,30.70
2023-07-06T07:18:11.104Z,29.60
2023-07-06T07:20:37.953Z,28.90
2023-07-06T07:23:06.682Z,29.30
2023-07-06T07:25:34.533Z,30.20
2023-07-06T07:28:02.474Z,32.30
2023-07-06T07:30:29.530Z,32.40
2023-07-06T07:32:56.394Z,32.60
2023-07-06T07:35:23.218Z,33.30
2023-07-06T07:37:52.699Z,34.10
2023-07-06T07:40:20.586Z,36.60
2023-07-06T07:42:50.954Z,38.20
2023-07-06T07:45:20.099Z,39.10
2023-07-06T07:47:52.312Z,39.90
2023-07-06T07:50:22.034Z,39.20
2023-07-06T07:52:51.162Z,39.30
2023-07-06T07:55:23.168Z,39.80
2023-07-06T07:57:50.065Z,41.10
2023-07-06T08:00:22.955Z,41.70
2023-07-06T08:02:54.208Z,41.10
2023-07-06T08:05:21.580Z,40.50
2023-07-06T08:07:53.981Z,41.10
2023-07-06T08:10:25.203Z,40.50
2023-07-06T08:12:56.967Z,40.30
2023-07-06T08:15:28.856Z,40.00
2023-07-06T08:17:59.193Z,40.90
2023-07-06T08:20:45.481Z,40.70
2023-07-06T08:23:25.383Z,40.60
2023-07-06T08:25:52.775Z,39.20
2023-07-06T08:28:25.843Z,39.60
2023-07-06T08:30:55.630Z,39.00
2023-07-06T08:33:22.799Z,39.10
2023-07-06T08:35:51.805Z,39.10
2023-07-06T08:40:53.750Z,41.10
2023-07-06T08:43:26.609Z,41.20
2023-07-06T08:45:58.882Z,41.30
2023-07-06T08:51:04.556Z,41.20
2023-07-06T08:53:42.496Z,41.30
2023-07-06T08:56:15.198Z,42.30
2023-07-06T08:58:43.648Z,41.50
2023-07-06T09:01:22.450Z,41.50
2023-07-06T09:04:18.277Z,42.50
2023-07-06T09:06:49.847Z,42.40
2023-07-06T09:09:16.764Z,41.80
2023-07-06T09:11:48.232Z,40.90
2023-07-06T09:14:17.707Z,40.90
2023-07-06T09:16:57.323Z,41.00
2023-07-06T09:19:25.891Z,41.40
2023-07-06T09:21:59.241Z,41.30
2023-07-06T09:24:29.333Z,41.30
2023-07-06T09:27:02.512Z,40.70
2023-07-06T09:29:37.009Z,41.70
2023-07-06T09:32:17.449Z,41.30
2023-07-06T09:34:48.604Z,41.50
2023-07-06T09:37:19.026Z,40.90
2023-07-06T09:40:09.597Z,36.90
2023-07-06T09:42:47.148Z,35.30
2023-07-06T09:45:31.239Z,33.60
2023-07-06T09:48:05.858Z,32.40
2023-07-06T09:50:38.625Z,31.20
2023-07-06T09:53:14.320Z,30.50
2023-07-06T09:55:42.974Z,29.60
2023-07-06T09:58:20.421Z,28.80
2023-07-06T10:00:57.174Z,28.60
2023-07-06T10:04:15.724Z,28.90
2023-07-06T10:07:19.922Z,28.50
2023-07-06T10:10:10.275Z,28.50
2023-07-06T10:13:09.119Z,28.60
2023-07-06T10:16:02.734Z,28.70
2023-07-06T10:18:40.776Z,28.70
2023-07-06T10:21:50.187Z,28.30
2023-07-06T10:24:41.260Z,28.00
2023-07-06T10:27:17.053Z,28.10
2023-07-06T10:29:47.502Z,28.30
2023-07-06T10:32:34.678Z,28.40
2023-07-06T10:35:25.804Z,28.20
2023-07-06T10:37:53.984Z,27.60
2023-07-06T10:40:26.136Z,27.30
2023-07-06T10:43:19.574Z,27.40
2023-07-06T10:45:52.974Z,27.70
2023-07-06T10:48:24.315Z,28.10
2023-07-06T10:51:13.264Z,28.00
2023-07-06T10:53:45.007Z,28.50
2023-07-06T10:56:26.854Z,28.00
2023-07-06T10:58:58.932Z,27.90
2023-07-06T11:01:40.223Z,27.90
2023-07-06T11:04:43.651Z,27.20
2023-07-06T11:07:12.954Z,26.60
2023-07-06T11:09:51.049Z,26.60
2023-07-06T11:12:20.829Z,27.10
2023-07-06T11:14:50.222Z,27.60
2023-07-06T11:17:50.088Z,28.20
2023-07-06T11:20:24.085Z,28.50
2023-07-06T11:22:56.914Z,28.60
2023-07-06T11:25:25.111Z,28.60
2023-07-06T11:28:01.026Z,28.50
2023-07-06T11:30:59.130Z,28.90
2023-07-06T11:33:58.351Z,28.70
2023-07-06T11:36:41.198Z,28.80
2023-07-06T11:39:32.463Z,28.50
2023-07-06T11:42:00.266Z,28.30
2023-07-06T11:44:52.339Z,28.20
2023-07-06T11:47:37.073Z,28.10
2023-07-06T11:50:09.697Z,28.10
2023-07-06T11:52:41.409Z,28.20
2023-07-06T11:55:32.947Z,27.70
2023-07-06T11:58:09.978Z,27.80
2023-07-06T12:00:52.127Z,27.90
2023-07-06T12:03:22.233Z,28.00
